Time;durP1;ratioP1;P1;durP2;ratioP2;P2;SDS_P1;SDS_P2;PMS_P1;PMS_P2;Temp;Humidity;BMP_temperature;BMP_pressure;BME280_temperature;BME280_humidity;BME280_pressure;Samples;Min_cycle;Max_cycle;Signal;HPM_P1;HPM_P2
2022/08/06 00:02:00;;;;;;;8.43;4.40;;;;;;;;;;5053502;28;20036;-71
2022/08/06 00:04:26;;;;;;;7.90;3.80;;;;;;;;;;5053346;28;20042;-71
2022/08/06 00:06:52;;;;;;;6.65;3.53;;;;;;;;;;5053020;28;20450;-71
2022/08/06 00:09:18;;;;;;;6.68;3.25;;;;;;;;;;5053344;28;20078;-71
2022/08/06 00:11:44;;;;;;;7.57;3.92;;;;;;;;;;5052891;28;20033;-71
2022/08/06 00:14:10;;;;;;;9.07;3.78;;;;;;;;;;5053018;28;20033;-70
2022/08/06 00:16:36;;;;;;;10.13;4.10;;;;;;;;;;5053366;28;20606;-71
2022/08/06 00:19:02;;;;;;;9.68;3.90;;;;;;;;;;5053199;28;20090;-71
2022/08/06 00:21:28;;;;;;;8.88;4.07;;;;;;;;;;5052288;28;20113;-71
2022/08/06 00:23:54;;;;;;;8.70;4.35;;;;;;;;;;5052869;28;20060;-71
2022/08/06 00:26:21;;;;;;;7.07;3.90;;;;;;;;;;5052783;28;20436;-71
2022/08/06 00:28:47;;;;;;;7.03;3.50;;;;;;;;;;5052929;28;20104;-72
2022/08/06 00:31:13;;;;;;;8.35;3.70;;;;;;;;;;5052585;28;20033;-71
2022/08/06 00:33:41;;;;;;;6.95;3.58;;;;;;;;;;5052304;28;20049;-71
2022/08/06 00:36:07;;;;;;;7.80;3.08;;;;;;;;;;5052534;28;20484;-72
2022/08/06 00:38:33;;;;;;;5.82;3.30;;;;;;;;;;5052430;28;20040;-72
2022/08/06 00:41:00;;;;;;;10.27;3.78;;;;;;;;;;5052217;28;20052;-71
2022/08/06 00:43:27;;;;;;;8.65;3.70;;;;;;;;;;5052371;28;20037;-73
2022/08/06 00:45:52;;;;;;;6.68;3.53;;;;;;;;;;5052156;28;20029;-72
2022/08/06 00:48:19;;;;;;;6.18;3.63;;;;;;;;;;5052326;28;20168;-73
2022/08/06 00:50:45;;;;;;;6.20;3.33;;;;;;;;;;5050112;28;20129;-73
2022/08/06 00:53:11;;;;;;;4.50;3.17;;;;;;;;;;5035840;28;20175;-72
2022/08/06 00:55:37;;;;;;;6.15;3.42;;;;;;;;;;5015110;28;20045;-71
2022/08/06 00:58:06;;;;;;;7.07;3.50;;;;;;;;;;5032541;28;20065;-72
2022/08/06 01:00:33;;;;;;;6.95;3.20;;;;;;;;;;5031637;28;20060;-71
2022/08/06 01:02:59;;;;;;;11.07;3.15;;;;;;;;;;5032327;28;20092;-71
2022/08/06 01:05:25;;;;;;;7.45;3.15;;;;;;;;;;5031793;28;20148;-70
2022/08/06 01:07:51;;;;;;;6.85;3.53;;;;;;;;;;5032060;28;20026;-71
2022/08/06 01:10:17;;;;;;;10.98;3.80;;;;;;;;;;5031900;28;20037;-71
2022/08/06 01:12:43;;;;;;;8.18;3.28;;;;;;;;;;5031832;28;20037;-70
2022/08/06 01:15:10;;;;;;;6.35;3.17;;;;;;;;;;5032198;28;20140;-71
2022/08/06 01:17:47;;;;;;;7.57;3.10;;;;;;;;;;5032240;28;20052;-71
2022/08/06 01:20:54;;;;;;;5.57;3.55;;;;;;;;;;5031745;28;20034;-71
2022/08/06 01:23:35;;;;;;;7.38;3.40;;;;;;;;;;5031880;28;20037;-69
2022/08/06 01:26:01;;;;;;;5.50;3.25;;;;;;;;;;5031693;28;20065;-70
2022/08/06 01:28:34;;;;;;;6.30;2.90;;;;;;;;;;5031744;28;20057;-70
2022/08/06 01:31:06;;;;;;;;;;;;;;;;;;5031917;28;20110;-70
2022/08/06 01:33:38;;;;;;;9.63;2.80;;;;;;;;;;5031654;28;19916;-70
2022/08/06 01:36:09;;;;;;;6.25;2.55;;;;;;;;;;5032054;28;20618;-70
2022/08/06 01:38:40;;;;;;;7.47;2.97;;;;;;;;;;5031858;28;20044;-71
2022/08/06 01:41:10;;;;;;;7.80;3.08;;;;;;;;;;5031585;28;20714;-72
2022/08/06 01:43:38;;;;;;;5.00;3.03;;;;;;;;;;5031108;28;20025;-71
2022/08/06 01:46:07;;;;;;;12.57;3.20;;;;;;;;;;5031050;28;20040;-71
2022/08/06 01:48:36;;;;;;;8.95;2.92;;;;;;;;;;5031612;28;20041;-72
2022/08/06 01:51:04;;;;;;;9.73;2.72;;;;;;;;;;5033449;28;20388;-71
2022/08/06 01:53:35;;;;;;;7.18;2.72;;;;;;;;;;5050690;28;20474;-71
2022/08/06 01:56:06;;;;;;;4.13;2.70;;;;;;;;;;5050718;28;20094;-71
2022/08/06 01:58:38;;;;;;;5.50;2.90;;;;;;;;;;5052462;28;20056;-71
2022/08/06 02:01:07;;;;;;;4.53;3.08;;;;;;;;;;5052302;28;20047;-73
2022/08/06 02:03:46;;;;;;;8.18;2.83;;;;;;;;;;5052174;28;20426;-69
2022/08/06 02:06:15;;;;;;;5.20;2.75;;;;;;;;;;5052537;28;20060;-71
2022/08/06 02:08:42;;;;;;;4.93;2.90;;;;;;;;;;5052508;28;20445;-75
2022/08/06 02:11:10;;;;;;;3.97;2.63;;;;;;;;;;5052411;28;20043;-72
2022/08/06 02:13:38;;;;;;;4.35;2.65;;;;;;;;;;5038079;28;20028;-71
2022/08/06 02:16:07;;;;;;;4.07;2.50;;;;;;;;;;5056578;28;20037;-70
2022/08/06 02:18:37;;;;;;;9.25;2.90;;;;;;;;;;5056623;28;20472;-70
2022/08/06 02:21:09;;;;;;;5.00;3.10;;;;;;;;;;5054285;28;20037;-70
2022/08/06 02:23:36;;;;;;;3.20;2.70;;;;;;;;;;5036177;28;20504;-70
2022/08/06 02:26:04;;;;;;;5.22;2.72;;;;;;;;;;5036409;28;20045;-70
2022/08/06 02:28:31;;;;;;;7.47;2.83;;;;;;;;;;5036344;28;20033;-71
2022/08/06 02:30:58;;;;;;;6.65;3.17;;;;;;;;;;5035960;28;20496;-70
2022/08/06 02:33:25;;;;;;;9.20;3.20;;;;;;;;;;5035847;28;20095;-69
2022/08/06 02:35:57;;;;;;;5.18;3.10;;;;;;;;;;5036186;28;20033;-69
2022/08/06 02:38:48;;;;;;;5.78;3.20;;;;;;;;;;5036186;28;20050;-72
2022/08/06 02:41:28;;;;;;;4.68;2.92;;;;;;;;;;5036278;28;20564;-74
2022/08/06 02:44:02;;;;;;;9.15;3.40;;;;;;;;;;5048754;28;20071;-70
2022/08/06 02:46:44;;;;;;;8.43;3.05;;;;;;;;;;5055820;28;20109;-70
2022/08/06 02:49:22;;;;;;;8.40;3.40;;;;;;;;;;5046016;28;20048;-69
2022/08/06 02:52:22;;;;;;;6.18;2.50;;;;;;;;;;5044308;28;20103;-69
2022/08/06 02:55:00;;;;;;;4.13;2.83;;;;;;;;;;5035644;28;20033;-70
2022/08/06 02:57:33;;;;;;;3.72;2.72;;;;;;;;;;5035654;28;20138;-70
2022/08/06 03:00:05;;;;;;;8.13;2.70;;;;;;;;;;5035738;28;20034;-70
2022/08/06 03:02:32;;;;;;;8.30;2.88;;;;;;;;;;5035597;28;20401;-71
2022/08/06 03:05:01;;;;;;;7.55;2.83;;;;;;;;;;5035365;28;20025;-70
2022/08/06 03:07:29;;;;;;;13.10;3.40;;;;;;;;;;5035426;28;20040;-70
2022/08/06 03:09:58;;;;;;;5.30;3.00;;;;;;;;;;5035764;28;20115;-70
2022/08/06 03:12:25;;;;;;;5.72;2.90;;;;;;;;;;5035392;28;20039;-70
2022/08/06 03:14:53;;;;;;;5.38;3.17;;;;;;;;;;5035272;28;20021;-70
2022/08/06 03:17:21;;;;;;;4.88;3.22;;;;;;;;;;5035051;28;20029;-71
2022/08/06 03:19:48;;;;;;;8.38;3.50;;;;;;;;;;5035170;28;20030;-71
2022/08/06 03:22:17;;;;;;;15.98;3.42;;;;;;;;;;5035189;28;20036;-69
2022/08/06 03:24:44;;;;;;;7.07;3.10;;;;;;;;;;5034290;28;20079;-69
2022/08/06 03:27:11;;;;;;;10.18;3.63;;;;;;;;;;5035356;28;20037;-68
2022/08/06 03:29:40;;;;;;;4.85;2.90;;;;;;;;;;5035200;28;20095;-71
2022/08/06 03:32:08;;;;;;;9.15;3.38;;;;;;;;;;5034717;28;20041;-69
2022/08/06 03:34:35;;;;;;;8.23;3.00;;;;;;;;;;5013797;28;20046;-71
2022/08/06 03:37:03;;;;;;;6.13;3.15;;;;;;;;;;5015455;28;20113;-68
2022/08/06 03:39:32;;;;;;;4.72;3.42;;;;;;;;;;5015353;28;20029;-68
2022/08/06 03:41:58;;;;;;;8.40;3.22;;;;;;;;;;5015011;28;20034;-69
2022/08/06 03:44:24;;;;;;;7.20;3.28;;;;;;;;;;5014790;28;20030;-69
2022/08/06 03:47:00;;;;;;;7.55;3.25;;;;;;;;;;5014814;28;20044;-68
2022/08/06 03:50:05;;;;;;;15.95;4.07;;;;;;;;;;5014881;28;20057;-68
2022/08/06 03:52:39;;;;;;;11.15;4.60;;;;;;;;;;4975531;28;20386;-69
2022/08/06 03:55:07;;;;;;;13.82;3.83;;;;;;;;;;5015100;28;20462;-71
2022/08/06 03:57:40;;;;;;;6.00;3.30;;;;;;;;;;5015096;28;20030;-71
2022/08/06 04:00:09;;;;;;;6.68;3.53;;;;;;;;;;5015014;28;20105;-71
2022/08/06 04:02:45;;;;;;;8.68;3.83;;;;;;;;;;5014681;28;20037;-69
2022/08/06 04:05:18;;;;;;;8.48;3.50;;;;;;;;;;5014649;28;20026;-71
2022/08/06 04:07:46;;;;;;;6.03;3.17;;;;;;;;;;5014619;28;20516;-70
2022/08/06 04:10:12;;;;;;;11.40;3.47;;;;;;;;;;5014550;28;20092;-70
2022/08/06 04:12:39;;;;;;;8.25;3.83;;;;;;;;;;5014803;28;20034;-70
2022/08/06 04:15:06;;;;;;;6.72;3.40;;;;;;;;;;5014550;28;20121;-70
2022/08/06 04:17:34;;;;;;;7.63;3.72;;;;;;;;;;5014378;28;20102;-70
2022/08/06 04:20:01;;;;;;;9.63;3.55;;;;;;;;;;5014496;28;20057;-69
2022/08/06 04:22:27;;;;;;;6.13;3.80;;;;;;;;;;5014489;28;20050;-69
2022/08/06 04:24:53;;;;;;;9.07;3.75;;;;;;;;;;5014448;28;20073;-69
2022/08/06 04:27:20;;;;;;;13.05;3.97;;;;;;;;;;5014428;28;20122;-69
2022/08/06 04:29:47;;;;;;;10.65;4.20;;;;;;;;;;5014223;28;20033;-69
2022/08/06 04:32:15;;;;;;;13.57;3.47;;;;;;;;;;5013949;28;20670;-69
2022/08/06 04:34:43;;;;;;;12.13;3.38;;;;;;;;;;5031907;28;20099;-69
2022/08/06 04:37:09;;;;;;;10.48;3.50;;;;;;;;;;5034025;28;20107;-69
2022/08/06 04:39:35;;;;;;;10.48;4.30;;;;;;;;;;5034079;28;20033;-69
2022/08/06 04:42:02;;;;;;;6.55;3.58;;;;;;;;;;5033917;28;20033;-69
2022/08/06 04:44:29;;;;;;;7.45;3.42;;;;;;;;;;5033757;28;20025;-69
2022/08/06 04:46:57;;;;;;;10.48;3.55;;;;;;;;;;5033779;28;20441;-69
2022/08/06 04:49:23;;;;;;;15.82;3.63;;;;;;;;;;5033779;28;20033;-70
2022/08/06 04:51:49;;;;;;;10.48;3.80;;;;;;;;;;5034026;28;20541;-69
2022/08/06 04:54:15;;;;;;;9.75;3.00;;;;;;;;;;5033808;28;20072;-70
2022/08/06 04:56:43;;;;;;;8.80;3.42;;;;;;;;;;5033456;28;20036;-70
2022/08/06 04:59:10;;;;;;;13.43;3.53;;;;;;;;;;5033470;28;20030;-70
2022/08/06 05:01:37;;;;;;;11.25;3.58;;;;;;;;;;5033387;28;20033;-70
2022/08/06 05:04:03;;;;;;;8.38;3.25;;;;;;;;;;5033406;28;20476;-70
2022/08/06 05:06:42;;;;;;;16.17;3.80;;;;;;;;;;5034071;28;20057;-70
2022/08/06 05:09:13;;;;;;;8.98;3.53;;;;;;;;;;5024138;28;20041;-70
2022/08/06 05:11:43;;;;;;;6.85;3.30;;;;;;;;;;5033284;28;20033;-70
2022/08/06 05:14:15;;;;;;;9.00;3.30;;;;;;;;;;5045765;28;20061;-70
2022/08/06 05:16:44;;;;;;;4.95;3.50;;;;;;;;;;5053091;28;20059;-70
2022/08/06 05:19:16;;;;;;;7.68;3.30;;;;;;;;;;5053095;28;20498;-69
2022/08/06 05:21:45;;;;;;;4.97;3.67;;;;;;;;;;5035718;28;20079;-70
2022/08/06 05:24:11;;;;;;;8.77;3.70;;;;;;;;;;5053084;28;20029;-70
2022/08/06 05:26:37;;;;;;;8.15;3.75;;;;;;;;;;5052759;28;20039;-70
2022/08/06 05:29:03;;;;;;;7.00;3.45;;;;;;;;;;5052738;28;20060;-70
2022/08/06 05:31:37;;;;;;;9.77;3.85;;;;;;;;;;5053012;28;20067;-71
2022/08/06 05:34:03;;;;;;;5.57;3.47;;;;;;;;;;5052553;28;20049;-71
2022/08/06 05:36:30;;;;;;;14.90;3.75;;;;;;;;;;5052935;28;20029;-71
2022/08/06 05:38:56;;;;;;;6.35;3.80;;;;;;;;;;5052757;28;20029;-70
2022/08/06 05:41:22;;;;;;;6.90;3.47;;;;;;;;;;5052898;28;20036;-70
2022/08/06 05:43:48;;;;;;;13.88;4.80;;;;;;;;;;5052688;28;20029;-70
2022/08/06 05:46:18;;;;;;;11.57;4.38;;;;;;;;;;5042600;28;20086;-72
2022/08/06 05:49:00;;;;;;;8.70;3.85;;;;;;;;;;5014702;28;20044;-72
2022/08/06 05:51:32;;;;;;;8.45;3.75;;;;;;;;;;5032668;28;20034;-72
2022/08/06 05:54:05;;;;;;;14.43;5.20;;;;;;;;;;5032726;28;20120;-71
2022/08/06 05:56:40;;;;;;;8.82;3.97;;;;;;;;;;5032772;28;20411;-71
2022/08/06 05:59:28;;;;;;;8.65;4.45;;;;;;;;;;5046897;28;20040;-72
2022/08/06 06:01:55;;;;;;;8.45;5.32;;;;;;;;;;5041108;28;20451;-72
2022/08/06 06:04:23;;;;;;;13.27;3.97;;;;;;;;;;5047652;28;20017;-72
2022/08/06 06:06:49;;;;;;;15.38;4.40;;;;;;;;;;5032826;28;20180;-75
2022/08/06 06:09:16;;;;;;;14.30;4.47;;;;;;;;;;5032615;28;20388;-77
2022/08/06 06:11:42;;;;;;;21.52;5.72;;;;;;;;;;5032571;28;20033;-74
2022/08/06 06:14:32;;;;;;;18.58;5.18;;;;;;;;;;5032363;28;20029;-74
2022/08/06 06:17:04;;;;;;;15.93;4.47;;;;;;;;;;5032371;28;20472;-74
2022/08/06 06:19:43;;;;;;;11.23;3.65;;;;;;;;;;5037390;28;20041;-76
2022/08/06 06:22:24;;;;;;;12.05;3.90;;;;;;;;;;5043049;28;20069;-75
2022/08/06 06:25:04;;;;;;;13.05;4.55;;;;;;;;;;5051624;28;20040;-75
2022/08/06 06:27:36;;;;;;;17.40;4.70;;;;;;;;;;5051157;28;20033;-74
2022/08/06 06:30:05;;;;;;;8.07;3.58;;;;;;;;;;5050442;28;20037;-71
2022/08/06 06:33:15;;;;;;;15.13;4.00;;;;;;;;;;5050370;28;20037;-73
2022/08/06 06:35:50;;;;;;;15.93;3.92;;;;;;;;;;4989901;28;20038;-74
2022/08/06 06:38:38;;;;;;;12.23;3.90;;;;;;;;;;5011483;28;20034;-73
2022/08/06 06:41:08;;;;;;;9.43;3.60;;;;;;;;;;5031742;28;20065;-73
2022/08/06 06:44:02;;;;;;;10.40;3.55;;;;;;;;;;5031309;28;20022;-74
2022/08/06 06:46:38;;;;;;;4.75;3.28;;;;;;;;;;5031749;28;20029;-73
2022/08/06 06:49:12;;;;;;;7.18;3.30;;;;;;;;;;5031238;28;20040;-73
2022/08/06 06:51:47;;;;;;;11.00;4.88;;;;;;;;;;5045093;28;20037;-71
2022/08/06 06:54:22;;;;;;;6.72;3.63;;;;;;;;;;5050684;28;20079;-71
2022/08/06 06:56:53;;;;;;;6.97;3.35;;;;;;;;;;5029710;28;20056;-72
2022/08/06 06:59:29;;;;;;;11.73;4.28;;;;;;;;;;5040406;28;20500;-72
2022/08/06 07:01:56;;;;;;;9.77;3.88;;;;;;;;;;5055002;28;20037;-72
2022/08/06 07:04:25;;;;;;;12.00;3.45;;;;;;;;;;5036871;28;20064;-71
2022/08/06 07:06:54;;;;;;;7.00;3.35;;;;;;;;;;5042327;28;20033;-74
2022/08/06 07:09:24;;;;;;;6.82;3.10;;;;;;;;;;5043987;28;20618;-74
2022/08/06 07:11:53;;;;;;;8.48;3.40;;;;;;;;;;5040342;28;20056;-73
2022/08/06 07:14:21;;;;;;;6.57;3.22;;;;;;;;;;5044295;28;20117;-74
2022/08/06 07:16:49;;;;;;;11.48;3.47;;;;;;;;;;5044735;28;20480;-73
2022/08/06 07:19:17;;;;;;;8.20;3.08;;;;;;;;;;5043854;28;20116;-72
2022/08/06 07:21:45;;;;;;;14.80;3.65;;;;;;;;;;5039072;28;20551;-74
2022/08/06 07:24:14;;;;;;;7.68;3.13;;;;;;;;;;5032987;28;20095;-75
2022/08/06 07:26:49;;;;;;;7.70;3.30;;;;;;;;;;5039672;28;20040;-75
2022/08/06 07:29:16;;;;;;;7.03;3.70;;;;;;;;;;5041885;28;20036;-76
2022/08/06 07:31:43;;;;;;;6.80;3.13;;;;;;;;;;5033527;28;20095;-76
2022/08/06 07:34:09;;;;;;;9.88;3.40;;;;;;;;;;5032146;28;20404;-76
2022/08/06 07:36:50;;;;;;;8.05;3.25;;;;;;;;;;5041551;28;20068;-75
2022/08/06 07:39:27;;;;;;;10.52;3.67;;;;;;;;;;5050430;28;20060;-74
2022/08/06 07:41:55;;;;;;;14.40;3.47;;;;;;;;;;5053132;28;20036;-73
2022/08/06 07:44:22;;;;;;;4.60;3.25;;;;;;;;;;5030794;28;20029;-75
2022/08/06 07:46:54;;;;;;;6.75;3.22;;;;;;;;;;5045792;28;20032;-72
2022/08/06 07:49:23;;;;;;;5.68;3.00;;;;;;;;;;5053416;28;20029;-72
2022/08/06 07:51:50;;;;;;;9.45;3.53;;;;;;;;;;5051993;28;20116;-72
2022/08/06 07:54:19;;;;;;;11.77;3.13;;;;;;;;;;5052369;28;20033;-72
2022/08/06 07:56:46;;;;;;;6.60;3.20;;;;;;;;;;5052872;28;20024;-72
2022/08/06 07:59:12;;;;;;;12.13;3.30;;;;;;;;;;5045980;28;20064;-72
2022/08/06 08:01:39;;;;;;;4.32;3.25;;;;;;;;;;5047934;28;20028;-70
2022/08/06 08:06:53;;;;;;;5.30;3.05;;;;;;;;;;5038650;28;20366;-71
2022/08/06 08:09:22;;;;;;;4.90;2.83;;;;;;;;;;5032925;28;20121;-71
2022/08/06 08:11:48;;;;;;;10.13;2.92;;;;;;;;;;5049613;28;20439;-70
2022/08/06 08:14:18;;;;;;;6.90;3.42;;;;;;;;;;5052081;28;20025;-72
2022/08/06 08:16:44;;;;;;;6.20;3.67;;;;;;;;;;5048365;28;20485;-71
2022/08/06 08:19:22;;;;;;;4.43;3.17;;;;;;;;;;5040924;28;20078;-71
2022/08/06 08:21:50;;;;;;;8.38;2.97;;;;;;;;;;5051216;28;20037;-71
2022/08/06 08:24:16;;;;;;;5.70;3.50;;;;;;;;;;5052169;28;20036;-72
2022/08/06 08:26:42;;;;;;;7.15;3.30;;;;;;;;;;5049367;28;20033;-72
2022/08/06 08:29:09;;;;;;;5.30;3.20;;;;;;;;;;5032631;28;20480;-72
2022/08/06 08:31:36;;;;;;;4.85;3.08;;;;;;;;;;5034574;28;20040;-71
2022/08/06 08:34:02;;;;;;;4.30;3.22;;;;;;;;;;5051395;28;20045;-72
2022/08/06 08:36:28;;;;;;;9.82;3.47;;;;;;;;;;5051446;28;20183;-71
2022/08/06 08:38:57;;;;;;;5.75;3.17;;;;;;;;;;5050364;28;20039;-72
2022/08/06 08:41:34;;;;;;;6.60;3.38;;;;;;;;;;5046115;28;20033;-72
2022/08/06 08:44:05;;;;;;;14.43;3.33;;;;;;;;;;5034349;28;20504;-72
2022/08/06 08:46:43;;;;;;;7.13;3.55;;;;;;;;;;5038195;28;20036;-71
2022/08/06 08:49:18;;;;;;;4.82;3.13;;;;;;;;;;5039950;28;20547;-71
2022/08/06 08:51:46;;;;;;;7.18;3.30;;;;;;;;;;5031511;28;20034;-71
2022/08/06 08:54:16;;;;;;;11.10;3.17;;;;;;;;;;5036049;28;20048;-72
2022/08/06 08:56:44;;;;;;;7.93;3.20;;;;;;;;;;5051751;28;20025;-71
2022/08/06 08:59:10;;;;;;;5.40;3.25;;;;;;;;;;5051009;28;20136;-72
2022/08/06 09:01:36;;;;;;;3.40;2.85;;;;;;;;;;5050640;28;20453;-72
2022/08/06 09:04:04;;;;;;;3.35;3.05;;;;;;;;;;5040531;28;20075;-71
2022/08/06 09:06:32;;;;;;;5.05;3.05;;;;;;;;;;5050442;28;20025;-71
2022/08/06 09:09:05;;;;;;;4.63;3.30;;;;;;;;;;5050296;28;20025;-71
2022/08/06 09:11:33;;;;;;;4.03;2.88;;;;;;;;;;5027400;28;20038;-73
2022/08/06 09:14:04;;;;;;;7.82;3.10;;;;;;;;;;5013303;28;20076;-73
2022/08/06 09:16:34;;;;;;;6.47;3.05;;;;;;;;;;5032238;28;20025;-73
2022/08/06 09:19:03;;;;;;;6.53;2.92;;;;;;;;;;5040303;28;20033;-72
2022/08/06 09:21:29;;;;;;;9.80;3.03;;;;;;;;;;5032227;28;20037;-72
2022/08/06 09:23:55;;;;;;;3.90;2.80;;;;;;;;;;5049878;28;20439;-74
2022/08/06 09:26:22;;;;;;;4.55;3.10;;;;;;;;;;5044107;28;20063;-72
2022/08/06 09:28:48;;;;;;;5.10;2.78;;;;;;;;;;5050713;28;20024;-72
2022/08/06 09:31:17;;;;;;;5.65;3.05;;;;;;;;;;5051103;28;20446;-74
2022/08/06 09:34:05;;;;;;;4.90;2.67;;;;;;;;;;5029033;28;20041;-71
2022/08/06 09:36:43;;;;;;;8.93;2.90;;;;;;;;;;5030731;28;20057;-73
2022/08/06 09:39:09;;;;;;;5.28;2.90;;;;;;;;;;5030599;28;20092;-72
2022/08/06 09:41:48;;;;;;;6.32;3.20;;;;;;;;;;5033093;28;20025;-73
2022/08/06 09:44:15;;;;;;;4.68;2.70;;;;;;;;;;5039806;28;20025;-73
2022/08/06 09:46:43;;;;;;;5.78;3.10;;;;;;;;;;5035409;28;20045;-73
2022/08/06 09:49:11;;;;;;;5.82;3.00;;;;;;;;;;5030902;28;20030;-71
2022/08/06 09:51:38;;;;;;;4.80;2.80;;;;;;;;;;5012140;28;20034;-72
2022/08/06 09:54:08;;;;;;;3.60;3.10;;;;;;;;;;5028421;28;20030;-72
2022/08/06 09:56:34;;;;;;;6.50;3.25;;;;;;;;;;5028473;28;20026;-72
2022/08/06 09:59:03;;;;;;;7.80;3.30;;;;;;;;;;5029624;28;20480;-74
2022/08/06 10:01:37;;;;;;;7.13;2.92;;;;;;;;;;5029449;28;20107;-73
2022/08/06 10:04:03;;;;;;;3.55;3.08;;;;;;;;;;5029417;28;20116;-74
2022/08/06 10:06:29;;;;;;;6.85;3.78;;;;;;;;;;5030556;28;20037;-72
2022/08/06 10:09:10;;;;;;;4.50;2.92;;;;;;;;;;5032208;28;20034;-72
2022/08/06 10:11:38;;;;;;;6.93;2.90;;;;;;;;;;5049526;28;20041;-72
2022/08/06 10:14:05;;;;;;;5.13;3.20;;;;;;;;;;5051720;28;20028;-72
2022/08/06 10:16:31;;;;;;;4.57;2.50;;;;;;;;;;5051850;28;20048;-72
2022/08/06 10:18:59;;;;;;;7.60;3.25;;;;;;;;;;5051600;28;20037;-72
2022/08/06 10:21:32;;;;;;;4.97;2.83;;;;;;;;;;5047325;28;20033;-73
2022/08/06 10:24:01;;;;;;;5.80;3.22;;;;;;;;;;5051052;28;20029;-72
2022/08/06 10:26:30;;;;;;;4.38;3.22;;;;;;;;;;5050722;28;20029;-74
2022/08/06 10:29:02;;;;;;;4.43;2.58;;;;;;;;;;5050145;28;20039;-72
2022/08/06 10:31:29;;;;;;;4.40;2.72;;;;;;;;;;5048208;28;20037;-72
2022/08/06 10:33:57;;;;;;;3.90;2.95;;;;;;;;;;5051817;28;20128;-72
2022/08/06 10:36:30;;;;;;;6.63;3.10;;;;;;;;;;5055318;28;20036;-73
2022/08/06 10:38:57;;;;;;;6.47;3.15;;;;;;;;;;5054771;28;20032;-74
2022/08/06 10:41:24;;;;;;;4.30;2.88;;;;;;;;;;5054112;28;20399;-73
2022/08/06 10:43:54;;;;;;;6.85;3.10;;;;;;;;;;5055131;28;20465;-75
2022/08/06 10:46:21;;;;;;;3.15;2.83;;;;;;;;;;5055004;28;20043;-73
2022/08/06 10:48:48;;;;;;;5.22;2.80;;;;;;;;;;5055543;28;20030;-73
2022/08/06 10:51:15;;;;;;;6.78;3.13;;;;;;;;;;5055212;28;20032;-74
2022/08/06 10:53:45;;;;;;;4.75;2.75;;;;;;;;;;5055166;28;20037;-73
2022/08/06 10:56:15;;;;;;;8.40;2.78;;;;;;;;;;5055211;28;20033;-71
2022/08/06 10:58:42;;;;;;;4.45;2.85;;;;;;;;;;5055252;28;20025;-73
2022/08/06 11:01:13;;;;;;;3.63;2.65;;;;;;;;;;5055208;28;20111;-71
2022/08/06 11:03:48;;;;;;;4.85;2.80;;;;;;;;;;5055189;28;20029;-72
2022/08/06 11:06:22;;;;;;;6.13;2.97;;;;;;;;;;5055109;28;20476;-72
2022/08/06 11:09:35;;;;;;;3.47;2.80;;;;;;;;;;5054899;28;20037;-73
2022/08/06 11:12:04;;;;;;;4.18;2.42;;;;;;;;;;5042587;28;20127;-77
2022/08/06 11:14:33;;;;;;;4.18;2.72;;;;;;;;;;5054658;28;20043;-73
2022/08/06 11:16:59;;;;;;;4.55;2.70;;;;;;;;;;5054501;28;20480;-73
2022/08/06 11:19:46;;;;;;;4.47;2.75;;;;;;;;;;5048853;28;20030;-71
2022/08/06 11:22:35;;;;;;;4.60;2.60;;;;;;;;;;5041706;28;20029;-71
2022/08/06 11:25:04;;;;;;;6.28;3.13;;;;;;;;;;5054210;28;20033;-72
2022/08/06 11:27:52;;;;;;;5.72;3.13;;;;;;;;;;5054506;28;20043;-72
2022/08/06 11:30:20;;;;;;;6.40;3.08;;;;;;;;;;5054605;28;20055;-72
2022/08/06 11:32:52;;;;;;;2.95;2.38;;;;;;;;;;5048989;28;20492;-72
2022/08/06 11:35:33;;;;;;;6.15;2.50;;;;;;;;;;5034475;28;20035;-72
2022/08/06 11:38:10;;;;;;;5.22;2.50;;;;;;;;;;5034810;28;20504;-73
2022/08/06 11:40:59;;;;;;;8.60;2.35;;;;;;;;;;5036679;28;20124;-72
2022/08/06 11:43:40;;;;;;;6.53;2.67;;;;;;;;;;5034324;28;20030;-72
2022/08/06 11:46:34;;;;;;;5.40;2.40;;;;;;;;;;5033083;28;20056;-73
2022/08/06 11:49:03;;;;;;;3.90;2.25;;;;;;;;;;5046029;28;20114;-73
2022/08/06 11:51:39;;;;;;;3.65;2.50;;;;;;;;;;5054181;28;20061;-71
2022/08/06 11:54:25;;;;;;;3.75;2.22;;;;;;;;;;5051488;28;20037;-72
2022/08/06 11:57:09;;;;;;;4.63;2.55;;;;;;;;;;5036837;28;20033;-73
2022/08/06 11:59:47;;;;;;;4.75;2.65;;;;;;;;;;5034091;28;20029;-70
2022/08/06 12:02:42;;;;;;;4.72;2.40;;;;;;;;;;5044778;28;20032;-73
2022/08/06 12:05:13;;;;;;;4.15;2.38;;;;;;;;;;5053591;28;20029;-71
2022/08/06 12:07:49;;;;;;;4.03;2.37;;;;;;;;;;5053652;28;20047;-70
2022/08/06 12:10:16;;;;;;;3.22;2.30;;;;;;;;;;5053675;28;20056;-73
2022/08/06 12:12:42;;;;;;;2.97;2.50;;;;;;;;;;5053507;28;20041;-73
2022/08/06 12:15:22;;;;;;;4.38;2.55;;;;;;;;;;5053886;28;20442;-72
2022/08/06 12:17:57;;;;;;;3.35;2.67;;;;;;;;;;5053623;28;20029;-72
2022/08/06 12:20:36;;;;;;;3.30;2.38;;;;;;;;;;5052985;28;20365;-70
2022/08/06 12:23:05;;;;;;;3.15;2.53;;;;;;;;;;5033695;28;20038;-72
2022/08/06 12:25:35;;;;;;;3.15;2.53;;;;;;;;;;5033501;28;20111;-75
2022/08/06 12:28:03;;;;;;;3.00;2.33;;;;;;;;;;5033153;28;20037;-71
2022/08/06 12:30:41;;;;;;;4.63;2.83;;;;;;;;;;5033042;28;20033;-72
2022/08/06 12:33:08;;;;;;;8.68;3.03;;;;;;;;;;5033007;28;20143;-73
2022/08/06 12:35:54;;;;;;;3.05;2.60;;;;;;;;;;5033213;28;20048;-71
2022/08/06 12:38:21;;;;;;;5.38;2.60;;;;;;;;;;5033257;28;20044;-74
2022/08/06 12:40:59;;;;;;;4.45;3.08;;;;;;;;;;5033290;28;20116;-71
2022/08/06 12:43:29;;;;;;;3.08;2.20;;;;;;;;;;5038536;28;20037;-72
2022/08/06 12:46:00;;;;;;;3.13;2.50;;;;;;;;;;5051582;28;20032;-73
2022/08/06 12:48:27;;;;;;;2.58;2.17;;;;;;;;;;5032946;28;20454;-70
2022/08/06 12:51:08;;;;;;;3.85;2.50;;;;;;;;;;5033181;28;20105;-70
2022/08/06 12:53:39;;;;;;;5.10;2.83;;;;;;;;;;5038188;28;20033;-69
2022/08/06 12:56:06;;;;;;;5.45;4.10;;;;;;;;;;5052829;28;20064;-71
2022/08/06 12:58:37;;;;;;;4.38;2.58;;;;;;;;;;5047609;28;20599;-71
2022/08/06 13:01:05;;;;;;;6.53;3.55;;;;;;;;;;5041644;28;20487;-71
2022/08/06 13:03:34;;;;;;;3.28;2.72;;;;;;;;;;5046538;28;20492;-73
2022/08/06 13:06:03;;;;;;;3.03;2.47;;;;;;;;;;5052850;28;20547;-74
2022/08/06 13:08:30;;;;;;;5.55;2.83;;;;;;;;;;5052422;28;20028;-73
2022/08/06 13:10:57;;;;;;;5.85;3.13;;;;;;;;;;5052323;28;20090;-72
2022/08/06 13:13:42;;;;;;;6.28;2.47;;;;;;;;;;5052527;28;20028;-73
2022/08/06 13:16:12;;;;;;;4.95;2.30;;;;;;;;;;5040642;28;20487;-72
2022/08/06 13:18:40;;;;;;;3.60;2.15;;;;;;;;;;5052314;28;20040;-71
2022/08/06 13:21:24;;;;;;;4.45;2.40;;;;;;;;;;5051785;28;20116;-72
2022/08/06 13:23:54;;;;;;;4.78;2.53;;;;;;;;;;5031198;28;20495;-72
2022/08/06 13:26:22;;;;;;;4.25;1.90;;;;;;;;;;5049601;28;20599;-72
2022/08/06 13:29:15;;;;;;;2.88;2.55;;;;;;;;;;5052258;28;20040;-72
2022/08/06 13:31:42;;;;;;;3.33;2.33;;;;;;;;;;5052229;28;20120;-71
2022/08/06 13:34:12;;;;;;;5.35;2.55;;;;;;;;;;5051992;28;20084;-71
2022/08/06 13:36:43;;;;;;;6.13;2.30;;;;;;;;;;5050335;28;20057;-71
2022/08/06 13:39:19;;;;;;;4.88;2.28;;;;;;;;;;5028790;28;20392;-72
2022/08/06 13:41:45;;;;;;;4.47;2.00;;;;;;;;;;5031566;28;20412;-73
2022/08/06 13:44:31;;;;;;;3.20;2.25;;;;;;;;;;5031343;28;20092;-70
2022/08/06 13:46:57;;;;;;;4.63;2.42;;;;;;;;;;5031442;28;20040;-73
2022/08/06 13:49:23;;;;;;;3.60;2.50;;;;;;;;;;5031114;28;20030;-73
2022/08/06 13:51:49;;;;;;;3.53;2.30;;;;;;;;;;5030380;28;20120;-74
2022/08/06 13:54:15;;;;;;;3.22;2.30;;;;;;;;;;5045455;28;20090;-73
2022/08/06 13:56:41;;;;;;;4.18;2.40;;;;;;;;;;5047291;28;20455;-73
2022/08/06 13:59:07;;;;;;;4.15;2.40;;;;;;;;;;5049889;28;20123;-73
2022/08/06 14:01:33;;;;;;;3.38;2.58;;;;;;;;;;5050550;28;20033;-72
2022/08/06 14:03:59;;;;;;;4.05;2.80;;;;;;;;;;5041460;28;20044;-73
2022/08/06 14:06:25;;;;;;;2.75;2.17;;;;;;;;;;5039596;28;20642;-71
2022/08/06 14:08:51;;;;;;;3.53;2.30;;;;;;;;;;5042520;28;20033;-72
2022/08/06 14:11:17;;;;;;;2.95;2.65;;;;;;;;;;5048463;28;20104;-72
2022/08/06 14:13:43;;;;;;;4.70;2.30;;;;;;;;;;5053914;28;20115;-72
2022/08/06 14:16:09;;;;;;;3.70;2.50;;;;;;;;;;5052078;28;20029;-72
2022/08/06 14:18:35;;;;;;;4.00;2.65;;;;;;;;;;5052474;28;20129;-72
2022/08/06 14:21:01;;;;;;;4.32;2.50;;;;;;;;;;5052469;28;20480;-72
2022/08/06 14:23:27;;;;;;;6.43;3.10;;;;;;;;;;5052058;28;20476;-73
2022/08/06 14:25:52;;;;;;;2.80;2.35;;;;;;;;;;5052705;28;20033;-72
2022/08/06 14:28:20;;;;;;;3.17;2.45;;;;;;;;;;5052268;28;20052;-73
2022/08/06 14:30:46;;;;;;;5.10;2.38;;;;;;;;;;5052856;28;20055;-73
2022/08/06 14:33:12;;;;;;;4.68;2.40;;;;;;;;;;5052529;28;20492;-71
2022/08/06 14:35:39;;;;;;;4.28;2.65;;;;;;;;;;5052187;28;20032;-73
2022/08/06 14:38:06;;;;;;;4.03;2.80;;;;;;;;;;5051800;28;20032;-71
2022/08/06 14:46:02;;;;;;;4.50;3.10;;;;;;;;;;5051927;28;20079;-72
2022/08/06 14:48:27;;;;;;;4.57;2.40;;;;;;;;;;5052174;28;20027;-72
2022/08/06 14:50:53;;;;;;;6.18;2.70;;;;;;;;;;5053355;28;20037;-72
2022/08/06 14:53:19;;;;;;;3.75;2.38;;;;;;;;;;5053371;28;20037;-73
2022/08/06 14:55:45;;;;;;;4.63;2.90;;;;;;;;;;5054313;28;20048;-73
2022/08/06 14:58:11;;;;;;;5.63;2.95;;;;;;;;;;5053516;28;20033;-72
2022/08/06 15:00:37;;;;;;;5.28;2.72;;;;;;;;;;5051819;28;20041;-72
2022/08/06 15:03:04;;;;;;;4.90;2.85;;;;;;;;;;5050419;28;20124;-73
2022/08/06 15:05:34;;;;;;;5.93;3.70;;;;;;;;;;5037500;28;20029;-75
2022/08/06 15:08:01;;;;;;;4.65;2.80;;;;;;;;;;5033443;28;20493;-72
2022/08/06 15:10:27;;;;;;;4.70;2.70;;;;;;;;;;5031872;28;20129;-72